Terminal Aerodrome Forecast
Issued by NWS Wilmington, NC

Home | Current Version | Previous Version | Text Only | Print | Product List | Glossary On
Versions: 1 2 3 4 5 6 7 8 9 10 11 12
000
FTUS42 KILM 291700
TAFLBT
TAF
KLBT 291740Z 2918/3018 20009KT P6SM BKN250
     FM300000 21006KT P6SM OVC100
     FM300700 26006KT P6SM SCT100
     FM301100 33011G18KT P6SM FEW040=

USA.gov is the U.S. government's official web portal to all federal, state and local government web resources and services.